Time;durP1;ratioP1;P1;durP2;ratioP2;P2;SDS_P1;SDS_P2;PMS_P1;PMS_P2;Temp;Humidity;BMP_temperature;BMP_pressure;BME280_temperature;BME280_humidity;BME280_pressure;Samples;Min_cycle;Max_cycle;Signal;HPM_P1;HPM_P2
2022/05/01 00:00:26;;;;;;;1.30;0.70;;;9.20;99.90;;;;;;5012077;28;20466;-85
2022/05/01 00:02:53;;;;;;;1.63;0.50;;;9.20;99.90;;;;;;4999866;28;20458;-85
2022/05/01 00:05:20;;;;;;;2.50;1.73;;;9.20;99.90;;;;;;5012016;28;20575;-85
2022/05/01 00:07:47;;;;;;;2.17;1.23;;;9.10;99.90;;;;;;5006726;28;20490;-85
2022/05/01 00:10:15;;;;;;;10.20;0.90;;;9.10;99.90;;;;;;5000294;28;20476;-85
2022/05/01 00:12:42;;;;;;;0.47;0.47;;;9.20;99.90;;;;;;5010407;28;20466;-85
2022/05/01 00:15:10;;;;;;;2.17;1.33;;;9.10;99.90;;;;;;5001871;28;20445;-85
2022/05/01 00:17:37;;;;;;;5.20;1.07;;;9.20;99.90;;;;;;4998899;28;20467;-85
2022/05/01 00:20:05;;;;;;;12.13;3.10;;;9.20;99.90;;;;;;5000484;28;20467;-85
2022/05/01 00:22:31;;;;;;;3.83;1.00;;;9.20;99.90;;;;;;5014127;28;20798;-85
2022/05/01 00:24:58;;;;;;;4.00;1.50;;;9.20;99.90;;;;;;5016169;28;20463;-85
2022/05/01 00:27:26;;;;;;;1.83;1.23;;;9.10;99.90;;;;;;5015830;28;20487;-86
2022/05/01 00:29:53;;;;;;;2.90;1.57;;;9.20;99.90;;;;;;5016121;28;20463;-85
2022/05/01 00:32:20;;;;;;;2.63;1.27;;;9.20;99.90;;;;;;5015787;28;20447;-85
2022/05/01 00:37:31;;;;;;;3.60;1.00;;;9.20;99.90;;;;;;4999865;28;20440;-85
2022/05/01 00:39:58;;;;;;;1.30;1.30;;;9.20;99.90;;;;;;5004986;28;20506;-85
2022/05/01 00:42:26;;;;;;;2.30;1.40;;;9.10;99.90;;;;;;5015530;28;20460;-85
2022/05/01 00:44:53;;;;;;;3.10;1.43;;;9.20;99.90;;;;;;5015610;28;20803;-86
2022/05/01 00:47:19;;;;;;;1.53;1.03;;;9.20;99.90;;;;;;5015213;28;20983;-84
2022/05/01 00:49:46;;;;;;;2.30;1.10;;;9.20;99.90;;;;;;5015272;28;20462;-85
2022/05/01 00:52:13;;;;;;;2.60;2.23;;;9.20;99.90;;;;;;5015490;28;20463;-85
2022/05/01 00:54:44;;;;;;;1.77;1.20;;;9.20;99.90;;;;;;5015362;28;20455;-85
2022/05/01 00:57:10;;;;;;;2.30;2.17;;;9.20;99.90;;;;;;5015896;28;20432;-85
2022/05/01 00:59:39;;;;;;;0.77;0.77;;;9.20;99.90;;;;;;5015207;28;20470;-85
2022/05/01 01:02:06;;;;;;;1.63;0.60;;;9.10;99.90;;;;;;5015217;28;20439;-85
2022/05/01 01:04:33;;;;;;;1.13;0.70;;;9.10;99.90;;;;;;5015040;28;20447;-85
2022/05/01 01:07:00;;;;;;;1.77;0.97;;;9.10;99.90;;;;;;5014982;28;20527;-85
2022/05/01 01:09:27;;;;;;;1.17;0.97;;;9.00;99.90;;;;;;5015729;28;20472;-85
2022/05/01 01:14:35;;;;;;;0.77;0.77;;;8.90;99.90;;;;;;5013753;28;20443;-86
2022/05/01 01:17:04;;;;;;;0.70;0.70;;;8.90;99.90;;;;;;5015186;28;20456;-85
2022/05/01 01:19:30;;;;;;;3.60;0.60;;;8.90;99.90;;;;;;5012613;28;20478;-85
2022/05/01 01:21:59;;;;;;;9.20;0.90;;;8.90;99.90;;;;;;4995228;28;20444;-85
2022/05/01 01:24:27;;;;;;;2.60;1.37;;;8.90;99.90;;;;;;5000952;28;20451;-85
2022/05/01 01:26:55;;;;;;;0.60;0.60;;;9.00;99.90;;;;;;5015310;28;20790;-85
2022/05/01 01:35:33;;;;;;;7.30;1.03;;;8.90;99.90;;;;;;5014907;28;20887;-86
2022/05/01 01:38:01;;;;;;;1.80;0.70;;;8.90;99.90;;;;;;5014719;28;20436;-86
2022/05/01 01:40:30;;;;;;;0.60;0.60;;;8.80;99.90;;;;;;5014227;28;20475;-85
2022/05/01 01:42:59;;;;;;;1.17;1.10;;;8.80;99.90;;;;;;5014323;28;20810;-85
2022/05/01 01:45:28;;;;;;;0.87;0.73;;;8.80;99.90;;;;;;5014453;28;20781;-86
2022/05/01 01:47:54;;;;;;;0.70;0.70;;;8.80;99.90;;;;;;4997921;28;20543;-85
2022/05/01 01:50:21;;;;;;;0.80;0.80;;;8.80;99.90;;;;;;4998682;28;20459;-85
2022/05/01 01:52:48;;;;;;;0.83;0.43;;;8.70;99.90;;;;;;5002273;28;21021;-85
2022/05/01 01:55:18;;;;;;;1.17;1.17;;;8.70;99.90;;;;;;5014488;28;20439;-85
2022/05/01 01:57:46;;;;;;;4.73;0.80;;;8.70;99.90;;;;;;5014158;28;20467;-86
2022/05/01 02:00:14;;;;;;;1.43;0.80;;;8.70;99.90;;;;;;5012769;28;20910;-85
2022/05/01 02:02:41;;;;;;;0.93;0.87;;;8.70;99.90;;;;;;5014184;28;20460;-86
2022/05/01 02:05:08;;;;;;;1.43;0.97;;;8.70;99.90;;;;;;5007220;28;20445;-85
2022/05/01 02:07:35;;;;;;;1.77;1.33;;;8.60;99.90;;;;;;5006283;28;20471;-85
2022/05/01 02:10:03;;;;;;;1.93;0.73;;;8.60;99.90;;;;;;5014089;28;20503;-85
2022/05/01 02:12:31;;;;;;;3.90;0.60;;;8.60;99.90;;;;;;5014140;28;20463;-85
2022/05/01 02:14:58;;;;;;;1.30;1.10;;;8.60;99.90;;;;;;5007881;28;20436;-85
2022/05/01 02:17:25;;;;;;;0.93;0.77;;;8.50;99.90;;;;;;5004855;28;20448;-85
2022/05/01 02:19:51;;;;;;;0.63;0.63;;;8.50;99.90;;;;;;5013881;28;20475;-85
2022/05/01 02:22:21;;;;;;;0.73;0.60;;;8.50;99.90;;;;;;5012326;28;20436;-85
2022/05/01 02:24:48;;;;;;;0.87;0.63;;;8.60;99.90;;;;;;5011622;28;20458;-85
2022/05/01 02:27:15;;;;;;;1.93;0.93;;;8.60;99.90;;;;;;5013482;28;20447;-85
2022/05/01 02:29:43;;;;;;;0.80;0.77;;;8.70;99.90;;;;;;5013853;28;20472;-86
2022/05/01 02:32:10;;;;;;;2.97;1.43;;;8.70;99.90;;;;;;5012232;28;20450;-85
2022/05/01 02:34:37;;;;;;;2.17;1.70;;;8.70;99.90;;;;;;4995228;28;20471;-85
2022/05/01 02:37:04;;;;;;;1.00;0.90;;;8.80;99.90;;;;;;4994096;28;20445;-85
2022/05/01 02:39:31;;;;;;;1.53;0.60;;;8.80;99.90;;;;;;4995180;28;20496;-85
2022/05/01 02:41:58;;;;;;;1.77;1.33;;;8.80;99.90;;;;;;4999643;28;20566;-85
2022/05/01 02:44:25;;;;;;;0.60;0.60;;;8.80;99.90;;;;;;5000256;28;20454;-85
2022/05/01 02:46:54;;;;;;;6.63;1.03;;;8.80;99.90;;;;;;5011047;28;20470;-85
2022/05/01 02:49:21;;;;;;;1.43;0.60;;;8.80;99.90;;;;;;5001094;28;20867;-86
2022/05/01 02:51:48;;;;;;;2.53;0.93;;;8.90;99.90;;;;;;5009399;28;20467;-86
2022/05/01 02:54:15;;;;;;;0.73;0.70;;;8.90;99.90;;;;;;5011305;28;20451;-85
2022/05/01 02:56:42;;;;;;;1.90;1.00;;;8.90;99.90;;;;;;5010419;28;20478;-85
2022/05/01 02:59:09;;;;;;;2.20;2.00;;;8.90;99.90;;;;;;5013680;28;20970;-86
2022/05/01 03:01:36;;;;;;;1.60;1.00;;;8.90;99.90;;;;;;5000922;28;20460;-86
2022/05/01 03:04:04;;;;;;;1.20;1.00;;;8.80;99.90;;;;;;5008289;28;20456;-86
2022/05/01 03:06:33;;;;;;;0.57;0.57;;;8.90;99.90;;;;;;5010816;28;20467;-85
2022/05/01 03:09:00;;;;;;;2.30;2.20;;;8.80;99.90;;;;;;4997619;28;20991;-86
2022/05/01 03:11:27;;;;;;;3.13;0.80;;;8.90;99.90;;;;;;5006684;28;20954;-86
2022/05/01 03:13:54;;;;;;;3.03;2.00;;;8.90;99.90;;;;;;4996807;28;20960;-85
2022/05/01 03:16:21;;;;;;;2.00;1.03;;;8.90;99.90;;;;;;4998557;28;20464;-86
2022/05/01 03:24:18;;;;;;;0.50;0.50;;;9.00;99.90;;;;;;5012759;28;20900;-85
2022/05/01 03:26:47;;;;;;;3.13;0.50;;;9.00;99.90;;;;;;5011473;28;20452;-85
2022/05/01 03:29:14;;;;;;;1.30;0.60;;;8.90;99.90;;;;;;5009602;28;20514;-86
2022/05/01 03:31:40;;;;;;;6.33;0.87;;;8.90;99.90;;;;;;5004141;28;20928;-85
2022/05/01 03:34:08;;;;;;;0.70;0.70;;;8.90;99.90;;;;;;4996930;28;20470;-85
2022/05/01 03:36:36;;;;;;;2.67;1.50;;;8.90;99.90;;;;;;5002575;28;20463;-85
2022/05/01 03:39:04;;;;;;;0.60;0.53;;;8.90;99.90;;;;;;5014177;28;20487;-85
2022/05/01 03:41:32;;;;;;;2.03;0.50;;;8.90;99.90;;;;;;5012181;28;20480;-85
2022/05/01 03:43:58;;;;;;;0.47;0.40;;;8.90;99.90;;;;;;5015754;28;20510;-86
2022/05/01 03:46:25;;;;;;;2.10;1.37;;;8.90;99.90;;;;;;5001343;28;20951;-86
2022/05/01 03:48:52;;;;;;;2.00;1.23;;;8.90;99.90;;;;;;5015657;28;20498;-85
2022/05/01 03:51:19;;;;;;;0.60;0.50;;;8.90;99.90;;;;;;5011929;28;20458;-86
2022/05/01 03:53:47;;;;;;;1.33;1.33;;;8.90;99.90;;;;;;5015960;28;20487;-85
2022/05/01 03:56:14;;;;;;;2.73;1.07;;;8.90;99.90;;;;;;5016618;28;20451;-86
2022/05/01 03:58:41;;;;;;;1.07;0.97;;;8.90;99.90;;;;;;5010461;28;20831;-86
2022/05/01 04:01:08;;;;;;;1.17;1.00;;;8.90;99.90;;;;;;4998440;28;20863;-86
2022/05/01 04:03:35;;;;;;;2.03;0.80;;;8.90;99.90;;;;;;5015455;28;20495;-86
2022/05/01 04:06:01;;;;;;;1.33;0.90;;;8.90;99.90;;;;;;5015760;28;20450;-85
2022/05/01 04:08:28;;;;;;;1.80;1.70;;;8.90;99.90;;;;;;5013995;28;20483;-85
2022/05/01 04:10:56;;;;;;;2.83;0.80;;;8.90;99.90;;;;;;5014827;28;20439;-86
2022/05/01 04:13:23;;;;;;;0.80;0.80;;;8.90;99.90;;;;;;5014470;28;20463;-86
2022/05/01 04:15:50;;;;;;;1.37;1.27;;;8.90;99.90;;;;;;5015467;28;20942;-86
2022/05/01 04:18:16;;;;;;;1.03;0.83;;;8.90;99.90;;;;;;4997890;28;20484;-85
2022/05/01 04:20:45;;;;;;;4.27;1.87;;;8.90;99.90;;;;;;5000501;28;20479;-86
2022/05/01 04:23:12;;;;;;;2.30;1.50;;;8.90;99.90;;;;;;5012860;28;20455;-85
2022/05/01 04:25:38;;;;;;;0.90;0.83;;;8.90;99.90;;;;;;5012831;28;20863;-85
2022/05/01 04:28:08;;;;;;;2.50;1.13;;;8.90;99.90;;;;;;5016072;28;20458;-86
2022/05/01 04:30:35;;;;;;;0.80;0.80;;;8.90;99.90;;;;;;5008989;28;20464;-85
2022/05/01 04:33:05;;;;;;;1.53;1.17;;;9.00;99.90;;;;;;5001759;28;20480;-86
2022/05/01 04:35:33;;;;;;;1.50;0.80;;;8.90;99.90;;;;;;5005259;28;20464;-86
2022/05/01 04:38:02;;;;;;;2.30;1.17;;;8.90;99.90;;;;;;5015066;28;20468;-85
2022/05/01 04:40:30;;;;;;;1.43;1.33;;;9.00;99.90;;;;;;5008395;28;20486;-86
2022/05/01 04:43:04;;;;;;;2.33;2.03;;;9.00;99.90;;;;;;4999380;28;20487;-86
2022/05/01 04:45:33;;;;;;;1.50;0.80;;;9.00;99.90;;;;;;5004873;28;20459;-86
2022/05/01 04:48:00;;;;;;;1.60;0.90;;;9.00;99.90;;;;;;5002761;28;20464;-86
2022/05/01 04:50:27;;;;;;;3.27;1.20;;;9.00;99.90;;;;;;4996223;28;20461;-85
2022/05/01 04:52:54;;;;;;;1.07;0.83;;;9.00;99.90;;;;;;4997801;28;20471;-85
2022/05/01 04:55:20;;;;;;;1.27;1.03;;;9.00;99.90;;;;;;4997275;28;20452;-86
2022/05/01 04:57:47;;;;;;;2.33;1.17;;;9.00;99.90;;;;;;5006910;28;20462;-86
2022/05/01 05:00:14;;;;;;;1.07;0.97;;;9.00;99.90;;;;;;5003438;28;20468;-86
2022/05/01 05:02:43;;;;;;;1.43;0.73;;;9.00;99.90;;;;;;5006506;28;20484;-85
2022/05/01 05:05:12;;;;;;;3.67;1.87;;;9.00;99.90;;;;;;5004767;28;20456;-86
2022/05/01 05:07:39;;;;;;;2.10;2.00;;;9.00;99.90;;;;;;4996822;28;20440;-86
2022/05/01 05:10:07;;;;;;;1.33;1.00;;;9.00;99.90;;;;;;4996470;28;20492;-85
2022/05/01 05:12:35;;;;;;;2.43;1.60;;;9.10;99.90;;;;;;4996287;28;20899;-86
2022/05/01 05:15:03;;;;;;;4.00;1.90;;;9.10;99.90;;;;;;5013337;28;20495;-86
2022/05/01 05:17:31;;;;;;;2.63;2.43;;;9.10;99.90;;;;;;5012260;28;20474;-85
2022/05/01 05:20:00;;;;;;;14.00;1.80;;;9.20;99.90;;;;;;5008536;28;20475;-86
2022/05/01 05:22:27;;;;;;;1.87;1.23;;;9.10;99.90;;;;;;4997376;28;20456;-85
2022/05/01 05:24:54;;;;;;;4.53;1.30;;;9.20;99.90;;;;;;5001903;28;20459;-85
2022/05/01 05:27:25;;;;;;;2.20;1.43;;;9.20;99.90;;;;;;4998233;28;20494;-85
2022/05/01 05:29:52;;;;;;;2.60;2.13;;;9.30;99.90;;;;;;5014789;28;20540;-85
2022/05/01 05:32:19;;;;;;;8.13;1.10;;;9.40;99.90;;;;;;5010817;28;20539;-85
2022/05/01 05:34:46;;;;;;;5.07;0.80;;;9.40;99.90;;;;;;5004790;28;20503;-86
2022/05/01 05:37:14;;;;;;;5.33;1.90;;;9.40;99.90;;;;;;4996746;28;20471;-86
2022/05/01 05:39:41;;;;;;;1.97;0.83;;;9.40;99.90;;;;;;4996926;28;20495;-86
2022/05/01 05:42:08;;;;;;;1.63;0.90;;;9.50;99.90;;;;;;4995344;28;20460;-85
2022/05/01 05:44:35;;;;;;;0.60;0.60;;;9.50;99.90;;;;;;5002811;28;20455;-85
2022/05/01 05:47:02;;;;;;;0.93;0.87;;;9.50;99.90;;;;;;5013392;28;20436;-85
2022/05/01 05:49:28;;;;;;;3.90;1.23;;;9.50;99.90;;;;;;5013227;28;20986;-86
2022/05/01 05:51:55;;;;;;;6.33;2.77;;;9.60;99.90;;;;;;4998418;28;20455;-84
2022/05/01 05:54:23;;;;;;;6.53;1.73;;;9.60;99.90;;;;;;5011305;28;20464;-85
2022/05/01 05:56:50;;;;;;;1.67;0.93;;;9.60;99.90;;;;;;4998942;28;20514;-85
2022/05/01 05:59:17;;;;;;;3.57;0.90;;;9.60;99.90;;;;;;4997255;28;20511;-85
2022/05/01 06:01:43;;;;;;;1.13;0.70;;;9.60;99.90;;;;;;5003093;28;20935;-85
2022/05/01 06:04:10;;;;;;;5.07;1.70;;;9.60;99.90;;;;;;4994740;28;20444;-85
2022/05/01 06:06:37;;;;;;;1.40;1.13;;;9.60;99.90;;;;;;5008577;28;20477;-85
2022/05/01 06:09:04;;;;;;;3.57;1.50;;;9.70;99.90;;;;;;5014069;28;20510;-86
2022/05/01 06:11:32;;;;;;;0.93;0.80;;;9.80;99.90;;;;;;5006441;28;20861;-86
2022/05/01 06:13:58;;;;;;;0.87;0.87;;;9.80;99.90;;;;;;5011679;28;20467;-86
2022/05/01 06:16:25;;;;;;;9.20;1.20;;;9.80;99.90;;;;;;5001816;28;20979;-85
2022/05/01 06:18:52;;;;;;;1.87;0.77;;;9.80;99.90;;;;;;5001167;28;20499;-85
2022/05/01 06:21:19;;;;;;;2.20;1.13;;;9.80;99.90;;;;;;5006595;28;20451;-85
2022/05/01 06:23:48;;;;;;;3.53;1.17;;;9.80;99.90;;;;;;5010581;28;20479;-85
2022/05/01 06:26:14;;;;;;;1.40;0.67;;;9.80;99.90;;;;;;5009111;28;20555;-85
2022/05/01 06:28:42;;;;;;;5.00;1.63;;;9.90;99.90;;;;;;5012091;28;20467;-85
2022/05/01 06:31:09;;;;;;;3.97;1.50;;;9.90;99.90;;;;;;5012656;28;20450;-85
2022/05/01 06:36:45;;;;;;;1.80;0.77;;;9.80;99.90;;;;;;5007627;28;20470;-86
2022/05/01 06:39:12;;;;;;;0.83;0.60;;;9.80;99.90;;;;;;4994219;28;20986;-86
2022/05/01 06:41:39;;;;;;;2.63;2.07;;;9.80;99.90;;;;;;5004672;28;20444;-86
2022/05/01 06:44:08;;;;;;;1.80;1.33;;;9.80;99.90;;;;;;5004483;28;20436;-82
2022/05/01 06:46:34;;;;;;;1.37;1.03;;;9.90;99.90;;;;;;5009997;28;20463;-86
2022/05/01 06:49:01;;;;;;;4.63;0.70;;;9.90;99.90;;;;;;5005148;28;20862;-86
2022/05/01 06:51:28;;;;;;;2.70;1.50;;;9.90;99.90;;;;;;4994264;28;20453;-87
2022/05/01 06:53:55;;;;;;;1.40;1.30;;;9.90;99.90;;;;;;5002504;28;20472;-86
2022/05/01 06:56:21;;;;;;;8.33;1.20;;;10.00;99.90;;;;;;4994288;28;20452;-86
2022/05/01 06:58:48;;;;;;;3.60;1.10;;;9.90;99.90;;;;;;5006403;28;20486;-87
2022/05/01 07:01:16;;;;;;;1.20;0.70;;;9.90;99.90;;;;;;5007428;28;20465;-87
2022/05/01 07:03:43;;;;;;;6.90;1.00;;;9.90;99.90;;;;;;5001892;28;20467;-87
2022/05/01 07:06:10;;;;;;;1.67;0.90;;;9.90;99.90;;;;;;5013038;28;20448;-86
2022/05/01 07:08:36;;;;;;;2.37;2.17;;;9.90;99.90;;;;;;5005110;28;20845;-87
2022/05/01 07:11:03;;;;;;;3.00;1.20;;;9.90;99.90;;;;;;5014360;28;20479;-86
2022/05/01 07:13:30;;;;;;;0.90;0.90;;;9.90;99.90;;;;;;5009442;28;20973;-86
2022/05/01 07:15:57;;;;;;;1.53;1.23;;;9.90;99.90;;;;;;5017514;28;20452;-87
2022/05/01 07:18:25;;;;;;;3.10;1.13;;;9.90;99.90;;;;;;5009899;28;20494;-86
2022/05/01 07:20:51;;;;;;;3.53;1.03;;;9.90;99.90;;;;;;5000839;28;20475;-86
2022/05/01 07:23:21;;;;;;;1.27;1.17;;;9.90;99.90;;;;;;5004015;28;20436;-87
2022/05/01 07:25:48;;;;;;;2.60;1.43;;;10.00;99.90;;;;;;5015545;28;20538;-86
2022/05/01 07:28:15;;;;;;;1.40;0.63;;;9.90;99.90;;;;;;5014774;28;20890;-87
2022/05/01 07:30:42;;;;;;;1.73;1.00;;;10.00;99.90;;;;;;5017079;28;20510;-86
2022/05/01 07:33:09;;;;;;;4.90;1.17;;;10.00;99.90;;;;;;5012014;28;20459;-86
2022/05/01 07:35:37;;;;;;;4.90;1.03;;;10.00;99.90;;;;;;4997436;28;20931;-87
2022/05/01 07:38:04;;;;;;;3.70;0.70;;;10.10;99.90;;;;;;4998737;28;20468;-86
2022/05/01 07:40:31;;;;;;;2.53;1.40;;;10.10;99.90;;;;;;4997188;28;20487;-86
2022/05/01 07:42:58;;;;;;;3.57;0.60;;;10.10;99.90;;;;;;5011906;28;20849;-86
2022/05/01 07:45:24;;;;;;;2.40;0.43;;;10.10;99.90;;;;;;4997322;28;20440;-87
2022/05/01 07:47:51;;;;;;;4.27;0.83;;;10.20;99.90;;;;;;5011657;28;20838;-86
2022/05/01 07:50:18;;;;;;;1.73;0.97;;;10.20;99.90;;;;;;5016198;28;21012;-86
2022/05/01 07:52:46;;;;;;;1.43;1.10;;;10.30;99.90;;;;;;5015049;28;20462;-86
2022/05/01 07:55:13;;;;;;;1.70;1.10;;;10.20;99.90;;;;;;4998206;28;20467;-87
2022/05/01 07:57:39;;;;;;;3.97;1.43;;;10.20;99.90;;;;;;5009888;28;20475;-86
2022/05/01 08:00:07;;;;;;;1.80;1.10;;;10.20;99.90;;;;;;5016407;28;20574;-86
2022/05/01 08:05:29;;;;;;;5.33;1.53;;;10.30;99.90;;;;;;5006584;28;20451;-86
2022/05/01 08:08:00;;;;;;;0.87;0.87;;;10.30;99.90;;;;;;5016612;28;20438;-86
2022/05/01 08:10:26;;;;;;;2.43;1.57;;;10.40;99.90;;;;;;5014405;28;20525;-87
2022/05/01 08:12:53;;;;;;;2.40;1.73;;;10.50;99.90;;;;;;5007352;28;20433;-86
2022/05/01 08:15:20;;;;;;;0.70;0.63;;;10.50;99.90;;;;;;5006045;28;20460;-86
2022/05/01 08:17:47;;;;;;;0.50;0.50;;;10.50;99.90;;;;;;5013435;28;20866;-87
2022/05/01 08:23:04;;;;;;;2.60;0.90;;;10.60;99.90;;;;;;5003700;28;20423;-87
2022/05/01 08:25:31;;;;;;;0.77;0.60;;;10.70;99.90;;;;;;5011277;28;20463;-87
2022/05/01 08:27:58;;;;;;;2.30;0.90;;;10.70;99.90;;;;;;5003297;28;20827;-85
2022/05/01 08:30:25;;;;;;;0.80;0.80;;;10.70;99.90;;;;;;5003635;28;20987;-86
2022/05/01 08:32:52;;;;;;;1.03;0.70;;;10.80;99.90;;;;;;5006783;28;20468;-85
2022/05/01 08:35:19;;;;;;;1.20;0.70;;;10.90;99.90;;;;;;5005166;28;20467;-86
2022/05/01 08:37:46;;;;;;;1.00;0.60;;;10.90;99.90;;;;;;5012333;28;20452;-86
2022/05/01 08:40:15;;;;;;;0.93;0.93;;;11.00;99.90;;;;;;5001857;28;20487;-87
2022/05/01 08:42:43;;;;;;;1.77;0.60;;;11.00;99.90;;;;;;4997447;28;20855;-87
2022/05/01 08:45:13;;;;;;;1.37;1.27;;;11.00;99.90;;;;;;4995796;28;20952;-86
2022/05/01 08:47:44;;;;;;;1.73;1.10;;;11.00;99.90;;;;;;4996430;28;20453;-87
2022/05/01 08:50:11;;;;;;;1.23;1.23;;;11.10;99.90;;;;;;4996507;28;20480;-87
2022/05/01 08:52:38;;;;;;;3.27;1.40;;;11.10;99.90;;;;;;4996280;28;20463;-87
2022/05/01 08:55:06;;;;;;;1.63;1.07;;;11.20;99.90;;;;;;4996154;28;20484;-87
2022/05/01 08:57:35;;;;;;;2.80;1.87;;;11.30;99.90;;;;;;4997555;28;20472;-82
2022/05/01 09:00:07;;;;;;;0.60;0.60;;;11.40;99.90;;;;;;5014797;28;20464;-80
2022/05/01 09:02:34;;;;;;;1.63;1.43;;;11.40;99.90;;;;;;5015009;28;20470;-87
2022/05/01 09:05:02;;;;;;;3.77;1.00;;;11.50;99.90;;;;;;5015026;28;20955;-81
2022/05/01 09:07:28;;;;;;;1.10;0.47;;;11.50;99.90;;;;;;5013234;28;20475;-81
2022/05/01 09:09:55;;;;;;;5.13;1.00;;;11.60;99.90;;;;;;5015083;28;20491;-85
2022/05/01 09:15:08;;;;;;;2.10;0.97;;;11.80;99.90;;;;;;5014543;28;20435;-85
2022/05/01 09:17:35;;;;;;;1.17;0.60;;;12.00;99.90;;;;;;5014995;28;20459;-84
2022/05/01 09:20:07;;;;;;;1.30;0.97;;;12.10;99.90;;;;;;5014635;28;20468;-85
2022/05/01 09:22:49;;;;;;;1.50;0.93;;;12.10;99.90;;;;;;5014550;28;20455;-85
2022/05/01 09:25:18;;;;;;;1.90;1.00;;;12.30;99.90;;;;;;5015131;28;20877;-85
2022/05/01 09:27:45;;;;;;;1.20;0.90;;;12.40;99.90;;;;;;5014924;28;20447;-85
2022/05/01 09:30:15;;;;;;;1.03;0.70;;;12.40;99.90;;;;;;5014765;28;20505;-85
2022/05/01 09:32:43;;;;;;;2.73;1.40;;;12.50;99.90;;;;;;5015565;28;20447;-85
2022/05/01 09:35:13;;;;;;;6.20;1.20;;;12.60;99.90;;;;;;5015332;28;20479;-85
2022/05/01 09:37:41;;;;;;;2.10;1.93;;;12.60;99.90;;;;;;5018978;28;20936;-85
2022/05/01 09:40:09;;;;;;;1.20;1.10;;;12.70;99.90;;;;;;5014213;28;20518;-84
2022/05/01 09:42:36;;;;;;;1.70;0.80;;;12.80;99.90;;;;;;5014392;28;20463;-85
2022/05/01 09:45:08;;;;;;;8.53;1.37;;;12.80;99.90;;;;;;5014408;28;20455;-85
2022/05/01 09:47:40;;;;;;;2.00;0.77;;;12.90;99.90;;;;;;5014700;28;20809;-85
2022/05/01 09:50:09;;;;;;;4.80;1.27;;;13.00;99.90;;;;;;5013966;28;20495;-85
2022/05/01 09:52:59;;;;;;;1.37;1.27;;;13.10;99.90;;;;;;5014264;28;20443;-85
2022/05/01 09:55:27;;;;;;;3.47;1.33;;;13.20;99.90;;;;;;5014262;28;20482;-85
2022/05/01 09:58:08;;;;;;;1.57;0.93;;;13.20;99.90;;;;;;5014157;28;20456;-84
2022/05/01 10:00:44;;;;;;;2.80;1.57;;;13.10;99.90;;;;;;5014290;28;20440;-85
2022/05/01 10:03:26;;;;;;;2.10;1.03;;;13.10;99.90;;;;;;5014084;28;20462;-85
2022/05/01 10:05:54;;;;;;;0.87;0.80;;;13.00;99.90;;;;;;5014713;28;20439;-84
2022/05/01 10:08:22;;;;;;;1.73;1.63;;;12.90;99.90;;;;;;5014464;28;20985;-85
2022/05/01 10:10:51;;;;;;;4.30;1.17;;;12.90;99.90;;;;;;5013764;28;20510;-85
2022/05/01 10:13:18;;;;;;;0.83;0.63;;;12.80;99.90;;;;;;5013711;28;20969;-85
2022/05/01 10:15:46;;;;;;;3.93;0.97;;;12.70;99.90;;;;;;5014577;28;20474;-85
2022/05/01 10:18:14;;;;;;;1.23;1.13;;;12.80;99.90;;;;;;5013549;28;20939;-85
2022/05/01 10:20:42;;;;;;;1.07;0.70;;;12.80;99.90;;;;;;5013632;28;20447;-85
2022/05/01 10:23:10;;;;;;;3.57;1.00;;;12.70;99.90;;;;;;5013848;28;20454;-85
2022/05/01 10:25:45;;;;;;;2.70;0.90;;;12.60;99.90;;;;;;5013508;28;20942;-85
2022/05/01 10:28:23;;;;;;;1.47;1.33;;;12.60;99.90;;;;;;5013675;28;20431;-84
2022/05/01 10:33:58;;;;;;;2.40;0.97;;;12.80;99.90;;;;;;5013742;28;20416;-85
2022/05/01 10:36:58;;;;;;;7.80;1.47;;;13.00;99.90;;;;;;5014471;28;20439;-85
2022/05/01 10:39:29;;;;;;;2.73;1.00;;;13.20;99.90;;;;;;5013283;28;20518;-84
2022/05/01 10:41:56;;;;;;;2.13;1.07;;;13.20;99.90;;;;;;5013637;28;20432;-86
2022/05/01 10:44:29;;;;;;;2.77;0.70;;;13.40;99.90;;;;;;5013316;28;20953;-85
2022/05/01 10:47:04;;;;;;;2.13;0.80;;;13.50;99.90;;;;;;5013035;28;20808;-85
2022/05/01 10:49:37;;;;;;;0.80;0.80;;;13.70;99.90;;;;;;5013176;28;20974;-85
2022/05/01 10:52:21;;;;;;;4.07;1.30;;;13.70;99.90;;;;;;5013075;28;20861;-85
2022/05/01 10:54:54;;;;;;;0.90;0.70;;;13.80;99.90;;;;;;5013522;28;20451;-85
2022/05/01 10:57:23;;;;;;;1.17;1.00;;;13.80;99.90;;;;;;5013450;28;20447;-85
2022/05/01 11:00:10;;;;;;;0.40;0.40;;;13.90;99.90;;;;;;5013327;28;20479;-84
2022/05/01 11:02:42;;;;;;;1.53;0.80;;;14.10;99.90;;;;;;5013383;28;20431;-84
2022/05/01 11:05:10;;;;;;;4.77;1.97;;;14.10;99.90;;;;;;5013362;28;20455;-84
2022/05/01 11:07:40;;;;;;;1.30;1.00;;;14.10;99.90;;;;;;5013681;28;20860;-84
2022/05/01 11:10:09;;;;;;;3.50;1.50;;;14.20;99.90;;;;;;5013248;28;20533;-84
2022/05/01 11:12:37;;;;;;;1.33;1.27;;;14.30;99.90;;;;;;5013350;28;20448;-84
2022/05/01 11:15:06;;;;;;;1.83;1.00;;;14.20;99.90;;;;;;5013102;28;20443;-85
2022/05/01 11:17:51;;;;;;;1.73;1.33;;;14.40;99.90;;;;;;5013394;28;20490;-85
2022/05/01 11:20:33;;;;;;;1.33;0.90;;;14.70;99.90;;;;;;5013115;28;20452;-85
2022/05/01 11:23:43;;;;;;;0.97;0.70;;;14.80;99.90;;;;;;5013378;28;20519;-85
2022/05/01 11:26:16;;;;;;;1.67;0.90;;;14.80;99.90;;;;;;5013352;28;20439;-85
2022/05/01 11:28:48;;;;;;;1.33;0.80;;;14.80;99.90;;;;;;5013016;28;20979;-85
2022/05/01 11:31:52;;;;;;;4.50;1.30;;;14.70;99.90;;;;;;5012880;28;21009;-84
2022/05/01 11:34:36;;;;;;;1.50;0.80;;;14.70;99.90;;;;;;5013118;28;20489;-85
2022/05/01 11:37:06;;;;;;;3.67;2.63;;;14.60;99.90;;;;;;5013273;28;20462;-84
2022/05/01 11:40:10;;;;;;;2.87;1.23;;;14.60;99.90;;;;;;5013046;28;20491;-85
2022/05/01 11:42:38;;;;;;;1.70;0.90;;;14.60;99.90;;;;;;5013525;28;20447;-85
2022/05/01 11:45:08;;;;;;;1.10;0.73;;;14.60;99.90;;;;;;5012953;28;20462;-84
2022/05/01 11:47:35;;;;;;;1.77;0.70;;;14.60;99.90;;;;;;5012920;28;20452;-85
2022/05/01 11:50:03;;;;;;;1.03;0.93;;;14.70;99.90;;;;;;5012891;28;20472;-84
2022/05/01 11:52:30;;;;;;;1.73;1.00;;;14.70;99.90;;;;;;5012897;28;20514;-84
2022/05/01 11:54:59;;;;;;;1.00;0.73;;;14.70;99.90;;;;;;5012860;28;20459;-84
2022/05/01 12:03:01;;;;;;;2.70;0.83;;;14.50;99.90;;;;;;5016451;28;20545;-83
2022/05/01 12:05:29;;;;;;;0.67;0.60;;;14.50;99.90;;;;;;5016302;28;20502;-84
2022/05/01 12:07:57;;;;;;;0.93;0.93;;;14.60;99.90;;;;;;5016223;28;20459;-84
2022/05/01 12:10:24;;;;;;;3.00;1.00;;;14.70;99.90;;;;;;5015826;28;20930;-83
2022/05/01 12:12:51;;;;;;;0.50;0.50;;;14.70;99.90;;;;;;5016249;28;20450;-84
2022/05/01 12:15:19;;;;;;;0.93;0.90;;;14.60;99.90;;;;;;5016123;28;20451;-85
2022/05/01 12:17:46;;;;;;;1.73;0.60;;;14.40;99.90;;;;;;5016155;28;20942;-85
2022/05/01 12:20:13;;;;;;;4.50;0.80;;;14.30;99.90;;;;;;5022249;28;20466;-84
2022/05/01 12:22:40;;;;;;;1.43;0.73;;;14.30;99.90;;;;;;5016204;28;20459;-85
2022/05/01 12:25:11;;;;;;;2.00;0.80;;;14.30;99.90;;;;;;5016612;28;20558;-85
2022/05/01 12:27:40;;;;;;;1.27;0.70;;;14.20;99.90;;;;;;5015669;28;20926;-85
2022/05/01 12:30:09;;;;;;;2.30;1.43;;;14.30;99.90;;;;;;5015846;28;20997;-84
2022/05/01 12:32:37;;;;;;;1.57;1.47;;;14.30;99.90;;;;;;5016216;28;20537;-85
2022/05/01 12:35:06;;;;;;;1.00;1.00;;;14.50;99.90;;;;;;5015766;28;20466;-84
2022/05/01 12:37:34;;;;;;;1.80;1.70;;;14.60;99.90;;;;;;5015724;28;20450;-85
2022/05/01 12:40:04;;;;;;;3.90;1.63;;;14.70;99.90;;;;;;5015346;28;21001;-84
2022/05/01 12:45:18;;;;;;;0.97;0.87;;;15.10;99.90;;;;;;5015980;28;20899;-84
2022/05/01 12:47:47;;;;;;;1.60;0.80;;;15.20;99.90;;;;;;5015582;28;20447;-84
2022/05/01 12:50:27;;;;;;;1.83;0.73;;;15.20;99.90;;;;;;5015409;28;20574;-85
2022/05/01 12:52:57;;;;;;;2.83;1.90;;;15.20;99.90;;;;;;5015484;28;20507;-85
2022/05/01 12:55:29;;;;;;;2.77;0.90;;;15.50;99.90;;;;;;5015426;28;20452;-85
2022/05/01 12:57:58;;;;;;;4.23;1.23;;;15.50;99.90;;;;;;5015310;28;20435;-85
2022/05/01 13:00:42;;;;;;;1.33;0.80;;;15.50;99.90;;;;;;5015362;28;20454;-84
2022/05/01 13:03:25;;;;;;;1.07;1.07;;;15.50;99.90;;;;;;5015013;28;20412;-85
2022/05/01 13:05:58;;;;;;;2.90;1.03;;;15.50;99.90;;;;;;5015407;28;20424;-85
2022/05/01 13:08:25;;;;;;;4.23;1.53;;;15.50;99.90;;;;;;5014755;28;20468;-85
2022/05/01 13:11:11;;;;;;;1.90;1.77;;;15.60;99.90;;;;;;5015101;28;20470;-85
2022/05/01 13:13:49;;;;;;;1.53;0.90;;;15.60;99.90;;;;;;5014983;28;20803;-85
2022/05/01 13:16:17;;;;;;;1.23;0.83;;;15.60;99.90;;;;;;5014917;28;20443;-85
2022/05/01 13:18:46;;;;;;;1.50;1.30;;;15.60;99.90;;;;;;5014519;28;20836;-84
2022/05/01 13:21:13;;;;;;;1.73;1.13;;;15.40;99.90;;;;;;5014886;28;20447;-85
2022/05/01 13:23:41;;;;;;;0.93;0.67;;;15.40;99.90;;;;;;5015401;28;20855;-84
2022/05/01 13:26:08;;;;;;;1.70;1.17;;;15.40;99.90;;;;;;5014625;28;20931;-84
2022/05/01 13:28:35;;;;;;;1.07;0.80;;;15.40;99.90;;;;;;5014678;28;20460;-84
2022/05/01 13:31:02;;;;;;;2.73;1.70;;;15.30;99.90;;;;;;5014654;28;20491;-84
2022/05/01 13:33:29;;;;;;;3.60;1.07;;;15.20;99.90;;;;;;5014638;28;20447;-84
2022/05/01 13:35:58;;;;;;;3.23;1.13;;;15.20;99.90;;;;;;5014878;28;20444;-84
2022/05/01 13:38:25;;;;;;;2.07;0.90;;;15.20;99.90;;;;;;5014423;28;20475;-84
2022/05/01 13:46:20;;;;;;;1.60;1.47;;;15.20;99.90;;;;;;5014265;28;20431;-84